Fontana, WI (53125)

7:54 AM CDT on October 01, 2014 (GMT -0500)
Country Club Estates | Change Station
CLOSE
Current Station
Personal Weather Station
Location: Fontana-on-Geneva Lake, WI
Elevation: 1056 ft
Nearby Weather Stations

Elev 1056 ft 42.54 °N, 88.57 °W | Updated 19 seconds ago

Overcast
Overcast
49.8 °F
Feels Like 50 °F
N
2.7
Wind Variable Wind from SSE

Today
High -- | Low -- °F
--% Chance of Precip.
Yesterday
High -- | Low -- °F
Precip. -- in
6:51 AM 6:35 PM
Waxing Crescent, 47% visible
Pressure 30.01 in
Visibility 10.0 miles
Clouds Overcast 2000 ft
Windchill 50 °F
Dew Point 46 °F
Humidity 87%
Rainfall 0.00 in
Snow Depth Not available.
UV 0 out of 12
Pollen 4.20 out of 12
Air Quality Not available.
Flu Activity Not available.
METAR KBUU 011235Z AUTO 15004KT 10SM OVC020 11/08 A3001 RMK AO2 T01110081

More Conditions Fewer Conditions

Pressure 30.01 in
Visibility 10.0 miles
Clouds Overcast 2000 ft
Windchill 50 °F
Dew Point 46 °F
Humidity 87%
Rainfall 0.00 in
Snow Depth Not available.
UV 0 out of 12
Pollen 4.20 out of 12
Air Quality Not available.
Flu Activity Not available.
METAR KBUU 011235Z AUTO 15004KT 10SM OVC020 11/08 A3001 RMK AO2 T01110081

More Conditions Fewer Conditions

10-Day Weather Forecast

Almanac

Astronomy

Oct. 01, 2014 Rise Set
Actual Time 6:51 AM CDT 6:35 PM CDT
Civil Twilight 6:23 AM CDT 7:03 PM CDT
Nautical Twilight 5:50 AM CDT 7:36 PM CDT
Astronomical Twilight 5:17 AM CDT 8:09 PM CDT
Moon 1:57 PM CDT No Moon Set
Length of Visible Light 12h 40m
Length of Day
11h 44m
Tomorrow will be 2m 51s shorter.
Waxing Crescent, 47% of the Moon is Illuminated
Today
Waxing Crescent
Oct 1
First Quarter
Oct 8
Full
Oct 15
Last Quarter
Oct 23
New

Today's Extremes

State Highs State Lows

Community

WunderPhotos

Upload Photos

1,757,917 photos uploaded!

Nearby

Snow Depth

Station Depth Elevation
No new snow has been reported.

Earthquake Activity

City Distance Mag. Time & Date
No recent earthquake activity has been reported nearby.
Minimum magnitude displayed is 2.5.

Coastal Water Temperatures

Place Temperature
No Stations Reporting

Nearby Weather Stations